Time;durP1;ratioP1;P1;durP2;ratioP2;P2;SDS_P1;SDS_P2;PMS_P1;PMS_P2;Temp;Humidity;BMP_temperature;BMP_pressure;BME280_temperature;BME280_humidity;BME280_pressure;Samples;Min_cycle;Max_cycle;Signal;HPM_P1;HPM_P2
2021/05/23 00:01:17;;;;;;;0.40;0.30;;;11.80;99.90;;;;;;5001139;28;20426;-76
2021/05/23 00:03:43;;;;;;;0.40;0.20;;;11.80;99.90;;;;;;5028591;28;20395;-78
2021/05/23 00:06:09;;;;;;;0.40;0.20;;;11.60;99.90;;;;;;5020792;28;20426;-77
2021/05/23 00:08:35;;;;;;;0.40;0.20;;;11.60;99.90;;;;;;5012722;28;20393;-76
2021/05/23 00:11:12;;;;;;;0.40;0.20;;;11.60;99.90;;;;;;5016995;28;20383;-77
2021/05/23 00:13:41;;;;;;;0.50;0.50;;;11.50;99.90;;;;;;5005294;28;20395;-77
2021/05/23 00:16:09;;;;;;;0.40;0.20;;;11.40;99.90;;;;;;5008970;28;20474;-75
2021/05/23 00:18:39;;;;;;;0.40;0.20;;;11.40;99.90;;;;;;5032874;28;20549;-78
2021/05/23 00:21:06;;;;;;;0.40;0.30;;;11.40;99.90;;;;;;5032439;28;20470;-76
2021/05/23 00:23:32;;;;;;;0.40;0.20;;;11.40;99.90;;;;;;5033017;28;20383;-75
2021/05/23 00:25:58;;;;;;;0.40;0.20;;;11.40;99.90;;;;;;5033080;28;20745;-75
2021/05/23 00:28:24;;;;;;;0.40;0.20;;;12.00;99.90;;;;;;5014879;28;20833;-75
2021/05/23 00:30:49;;;;;;;0.40;0.20;;;11.40;99.90;;;;;;5032938;28;20478;-75
2021/05/23 00:33:15;;;;;;;0.40;0.20;;;11.40;99.90;;;;;;5032775;28;20409;-75
2021/05/23 00:35:42;;;;;;;0.40;0.20;;;11.30;99.90;;;;;;5015075;28;20399;-74
2021/05/23 00:38:09;;;;;;;0.40;0.20;;;11.10;99.90;;;;;;5032536;28;20386;-75
2021/05/23 00:40:37;;;;;;;0.40;0.20;;;11.10;99.90;;;;;;5015735;28;20387;-75
2021/05/23 00:43:14;;;;;;;0.40;0.20;;;11.10;99.90;;;;;;5015242;28;20478;-74
2021/05/23 00:45:40;;;;;;;0.40;0.20;;;11.80;99.90;;;;;;5033388;28;20391;-75
2021/05/23 00:48:07;;;;;;;0.40;0.20;;;11.10;99.90;;;;;;5014627;28;20391;-77
2021/05/23 00:50:33;;;;;;;0.63;0.38;;;11.10;99.90;;;;;;5032519;28;20391;-76
2021/05/23 00:53:00;;;;;;;0.40;0.30;;;11.60;99.90;;;;;;5033147;28;20449;-75
2021/05/23 00:55:26;;;;;;;0.40;0.20;;;11.10;99.90;;;;;;5014629;28;20383;-77
2021/05/23 00:57:52;;;;;;;0.40;0.20;;;11.00;99.90;;;;;;5032440;28;20888;-77
2021/05/23 01:00:39;;;;;;;0.40;0.30;;;11.00;99.90;;;;;;5032260;28;20498;-77
2021/05/23 01:03:24;;;;;;;0.40;0.30;;;11.00;99.90;;;;;;5032268;28;20727;-76
2021/05/23 01:05:51;;;;;;;0.40;0.20;;;11.00;99.90;;;;;;5014809;28;20384;-76
2021/05/23 01:08:16;;;;;;;0.40;0.30;;;11.00;99.90;;;;;;5031694;28;20452;-75
2021/05/23 01:10:52;;;;;;;0.40;0.20;;;11.00;99.90;;;;;;5031255;28;20909;-75
2021/05/23 01:13:39;;;;;;;0.40;0.20;;;10.90;99.90;;;;;;5012269;28;20385;-75
2021/05/23 01:16:12;;;;;;;0.40;0.20;;;10.80;99.90;;;;;;5012749;28;20397;-75
2021/05/23 01:18:55;;;;;;;0.40;0.30;;;10.80;99.90;;;;;;5012356;28;20856;-75
2021/05/23 01:21:27;;;;;;;0.40;0.30;;;10.80;99.90;;;;;;5010799;28;20483;-76
2021/05/23 01:24:00;;;;;;;0.40;0.20;;;10.80;99.90;;;;;;5012592;28;20397;-75
2021/05/23 01:26:38;;;;;;;0.40;0.30;;;11.00;99.90;;;;;;5012061;28;20842;-75
2021/05/23 01:29:29;;;;;;;0.40;0.20;;;10.70;99.90;;;;;;5012529;28;20396;-75
2021/05/23 01:35:21;;;;;;;0.40;0.20;;;10.80;99.90;;;;;;4974631;28;20397;-77
2021/05/23 01:37:51;;;;;;;0.40;0.20;;;10.80;99.90;;;;;;5012361;28;20444;-74
2021/05/23 01:40:19;;;;;;;0.40;0.30;;;10.80;99.90;;;;;;5022604;28;20403;-74
2021/05/23 01:42:46;;;;;;;0.40;0.30;;;10.90;99.90;;;;;;5031781;28;20383;-74
2021/05/23 01:45:13;;;;;;;0.40;0.20;;;11.10;99.90;;;;;;5013542;28;20399;-74
2021/05/23 01:47:39;;;;;;;0.40;0.30;;;10.80;99.90;;;;;;5031577;28;20422;-74
2021/05/23 01:50:05;;;;;;;0.40;0.20;;;10.80;99.90;;;;;;5031752;28;20445;-75
2021/05/23 01:52:31;;;;;;;0.40;0.30;;;10.90;99.90;;;;;;5031100;28;20383;-75
2021/05/23 01:54:57;;;;;;;0.40;0.20;;;10.80;99.90;;;;;;5031387;28;20410;-76
2021/05/23 01:57:22;;;;;;;0.40;0.30;;;11.00;99.90;;;;;;5030955;28;20838;-75
2021/05/23 01:59:48;;;;;;;0.40;0.20;;;10.80;99.90;;;;;;5031454;28;20386;-75
2021/05/23 02:02:13;;;;;;;0.40;0.20;;;10.80;99.90;;;;;;5030811;28;20489;-76
2021/05/23 02:04:39;;;;;;;0.40;0.20;;;10.80;99.90;;;;;;5031335;28;20793;-75
2021/05/23 02:07:05;;;;;;;0.40;0.20;;;10.80;99.90;;;;;;5031342;28;20451;-77
2021/05/23 02:09:33;;;;;;;0.40;0.20;;;10.80;99.90;;;;;;5012703;28;20482;-75
2021/05/23 02:11:59;;;;;;;0.40;0.20;;;10.80;99.90;;;;;;5031379;28;20441;-75
2021/05/23 02:14:25;;;;;;;0.40;0.20;;;10.80;99.90;;;;;;5030565;28;20379;-76
2021/05/23 02:16:57;;;;;;;0.40;0.20;;;10.80;99.90;;;;;;5031141;28;20379;-76
2021/05/23 02:19:25;;;;;;;0.40;0.20;;;11.60;99.90;;;;;;5030650;28;20391;-74
2021/05/23 02:21:51;;;;;;;0.40;0.20;;;10.70;99.90;;;;;;5031256;28;20390;-76
2021/05/23 02:24:37;;;;;;;0.40;0.20;;;10.80;99.90;;;;;;5029282;28;20383;-75
2021/05/23 02:27:29;;;;;;;0.40;0.20;;;10.70;99.90;;;;;;5030832;28;20911;-76
2021/05/23 02:30:35;;;;;;;0.40;0.20;;;10.80;99.90;;;;;;5031408;28;20414;-76
2021/05/23 02:33:03;;;;;;;0.40;0.28;;;10.80;99.90;;;;;;5012520;28;20414;-75
2021/05/23 02:35:33;;;;;;;0.40;0.20;;;10.70;99.90;;;;;;5029947;28;20853;-77
2021/05/23 02:38:31;;;;;;;0.40;0.20;;;11.20;99.90;;;;;;5013416;28;20395;-76
2021/05/23 02:40:56;;;;;;;0.40;0.20;;;10.70;99.90;;;;;;5005853;28;20391;-75
2021/05/23 02:43:23;;;;;;;0.40;0.20;;;10.70;99.90;;;;;;5029219;28;20595;-75
2021/05/23 02:45:49;;;;;;;0.40;0.20;;;11.30;99.90;;;;;;5031042;28;20387;-77
2021/05/23 02:48:15;;;;;;;0.40;0.20;;;10.70;99.90;;;;;;5012737;28;20406;-78
2021/05/23 02:50:44;;;;;;;0.40;0.30;;;10.70;99.90;;;;;;5031070;28;20448;-76
2021/05/23 02:53:11;;;;;;;0.40;0.30;;;10.80;99.90;;;;;;5030527;28;20403;-76
2021/05/23 02:55:38;;;;;;;0.40;0.20;;;10.70;99.90;;;;;;5030471;28;20397;-77
2021/05/23 02:58:06;;;;;;;1.15;0.50;;;10.70;99.90;;;;;;5012996;28;20395;-76
2021/05/23 03:00:32;;;;;;;0.40;0.20;;;10.70;99.90;;;;;;5030455;28;20854;-75
2021/05/23 03:02:59;;;;;;;0.40;0.20;;;10.70;99.90;;;;;;5013325;28;20492;-77
2021/05/23 03:05:25;;;;;;;0.40;0.20;;;10.80;99.90;;;;;;5029738;28;20731;-76
2021/05/23 03:07:54;;;;;;;0.40;0.30;;;10.80;99.90;;;;;;5030790;28;20414;-75
2021/05/23 03:10:31;;;;;;;0.40;0.20;;;10.80;99.90;;;;;;5030350;28;20385;-76
2021/05/23 03:12:58;;;;;;;0.40;0.20;;;10.80;99.90;;;;;;5031023;28;20394;-75
2021/05/23 03:15:26;;;;;;;0.40;0.20;;;10.70;99.90;;;;;;5030164;28;20437;-75
2021/05/23 03:17:53;;;;;;;0.40;0.20;;;10.70;99.90;;;;;;5030795;28;20375;-76
2021/05/23 03:20:20;;;;;;;0.40;0.30;;;10.50;99.90;;;;;;5012506;28;20719;-74
2021/05/23 03:22:49;;;;;;;0.40;0.20;;;10.40;99.90;;;;;;5030500;28;20383;-76
2021/05/23 03:25:15;;;;;;;0.40;0.20;;;10.40;99.90;;;;;;5012387;28;20396;-78
2021/05/23 03:27:42;;;;;;;0.40;0.20;;;9.70;99.90;;;;;;5031551;28;20429;-75
2021/05/23 03:30:10;;;;;;;0.40;0.20;;;10.10;99.90;;;;;;5033976;28;20415;-76
2021/05/23 03:32:36;;;;;;;0.40;0.20;;;10.30;99.90;;;;;;5033318;28;20441;-77
2021/05/23 03:35:03;;;;;;;0.40;0.20;;;10.20;99.90;;;;;;5016655;28;20415;-77
2021/05/23 03:37:29;;;;;;;0.40;0.20;;;10.00;99.90;;;;;;5033845;28;20387;-75
2021/05/23 03:39:54;;;;;;;0.40;0.20;;;9.80;99.90;;;;;;5034612;28;20469;-75
2021/05/23 03:42:20;;;;;;;0.40;0.20;;;9.90;99.90;;;;;;5015960;28;20874;-75
2021/05/23 03:44:46;;;;;;;0.40;0.30;;;9.80;99.90;;;;;;5034200;28;20390;-76
2021/05/23 03:47:11;;;;;;;0.40;0.20;;;9.90;99.90;;;;;;5016179;28;20411;-75
2021/05/23 03:49:40;;;;;;;0.40;0.20;;;9.80;99.90;;;;;;5031780;28;20490;-77
2021/05/23 03:52:06;;;;;;;0.40;0.20;;;10.00;99.90;;;;;;5033621;28;20391;-75
2021/05/23 03:54:32;;;;;;;0.40;0.30;;;9.90;99.90;;;;;;5033030;28;20438;-77
2021/05/23 03:56:58;;;;;;;0.40;0.30;;;9.90;99.90;;;;;;5034011;28;20409;-77
2021/05/23 03:59:24;;;;;;;0.40;0.20;;;9.50;99.90;;;;;;5033311;28;20460;-78
2021/05/23 04:01:51;;;;;;;0.40;0.20;;;9.90;99.90;;;;;;5032976;28;20415;-76
2021/05/23 04:04:17;;;;;;;0.40;0.20;;;9.90;99.90;;;;;;5032479;28;20406;-77
2021/05/23 04:06:43;;;;;;;2.20;0.70;;;9.80;99.90;;;;;;5032637;28;20889;-78
2021/05/23 04:09:08;;;;;;;0.40;0.20;;;9.90;99.90;;;;;;5032579;28;20403;-77
2021/05/23 04:11:38;;;;;;;0.40;0.20;;;10.90;99.90;;;;;;5032711;28;20386;-76
2021/05/23 04:14:03;;;;;;;0.40;0.20;;;9.90;99.90;;;;;;5033135;28;20395;-78
2021/05/23 04:16:29;;;;;;;0.40;0.20;;;9.80;99.90;;;;;;5031565;28;20413;-76
2021/05/23 04:18:55;;;;;;;0.40;0.20;;;9.70;99.90;;;;;;5022366;28;20476;-78
2021/05/23 04:21:21;;;;;;;0.40;0.20;;;9.60;99.90;;;;;;5020722;28;20943;-79
2021/05/23 04:23:47;;;;;;;0.40;0.20;;;10.20;99.90;;;;;;5014644;28;20403;-77
2021/05/23 04:26:12;;;;;;;0.40;0.20;;;9.70;99.90;;;;;;5031518;28;20426;-77
2021/05/23 04:28:38;;;;;;;0.40;0.20;;;9.80;99.90;;;;;;5030018;28;20394;-78
2021/05/23 04:31:04;;;;;;;0.40;0.20;;;9.80;99.90;;;;;;5033038;28;20429;-77
2021/05/23 04:33:29;;;;;;;0.40;0.20;;;10.50;99.90;;;;;;5032647;28;20745;-77
2021/05/23 04:35:56;;;;;;;0.40;0.20;;;9.80;99.90;;;;;;5033336;28;20384;-78
2021/05/23 04:38:21;;;;;;;0.40;0.20;;;9.70;99.90;;;;;;5022220;28;20392;-79
2021/05/23 04:40:48;;;;;;;0.40;0.20;;;9.80;99.90;;;;;;5020423;28;20459;-78
2021/05/23 04:43:14;;;;;;;0.40;0.20;;;9.70;99.90;;;;;;5030020;28;20745;-78
2021/05/23 04:45:39;;;;;;;0.40;0.20;;;9.70;99.90;;;;;;5003356;28;20424;-77
2021/05/23 04:48:06;;;;;;;0.40;0.20;;;9.70;99.90;;;;;;5012222;28;20485;-77
2021/05/23 04:50:33;;;;;;;0.40;0.20;;;9.70;99.90;;;;;;5031206;28;20407;-76
2021/05/23 04:52:59;;;;;;;0.40;0.20;;;9.80;99.90;;;;;;5022173;28;20840;-77
2021/05/23 04:55:25;;;;;;;0.40;0.20;;;9.90;99.90;;;;;;4998755;28;20827;-78
2021/05/23 04:57:50;;;;;;;0.40;0.20;;;9.80;99.90;;;;;;5025327;28;20452;-77
2021/05/23 05:00:17;;;;;;;0.40;0.20;;;9.80;99.90;;;;;;5009717;28;20410;-76
2021/05/23 05:02:44;;;;;;;0.40;0.28;;;9.80;99.90;;;;;;5016510;28;20400;-75
2021/05/23 05:05:11;;;;;;;0.40;0.20;;;9.70;99.90;;;;;;5004524;28;20486;-76
2021/05/23 05:07:37;;;;;;;0.40;0.20;;;9.70;99.90;;;;;;5012706;28;20995;-75
2021/05/23 05:10:04;;;;;;;0.40;0.20;;;9.70;99.90;;;;;;5011190;28;20396;-75
2021/05/23 05:12:30;;;;;;;0.40;0.20;;;9.70;99.90;;;;;;5019880;28;20407;-75
2021/05/23 05:14:56;;;;;;;0.40;0.20;;;10.60;99.90;;;;;;5028405;28;20414;-75
2021/05/23 05:17:21;;;;;;;0.40;0.20;;;9.70;99.90;;;;;;5022777;28;20897;-74
2021/05/23 05:19:47;;;;;;;0.40;0.20;;;10.00;99.90;;;;;;5028630;28;20401;-74
2021/05/23 05:22:16;;;;;;;0.40;0.20;;;9.60;99.90;;;;;;5003311;28;20395;-76
2021/05/23 05:24:42;;;;;;;0.40;0.20;;;9.90;99.90;;;;;;5026551;28;20441;-75
2021/05/23 05:27:08;;;;;;;0.40;0.20;;;9.70;99.90;;;;;;5027685;28;20443;-77
2021/05/23 05:29:43;;;;;;;0.40;0.20;;;9.70;99.90;;;;;;5020472;28;20897;-78
2021/05/23 05:32:08;;;;;;;0.40;0.20;;;9.70;99.90;;;;;;5005795;28;20886;-77
2021/05/23 05:34:34;;;;;;;0.40;0.20;;;9.70;99.90;;;;;;5025674;28;20464;-76
2021/05/23 05:37:00;;;;;;;0.40;0.20;;;9.80;99.90;;;;;;5012282;28;20484;-77
2021/05/23 05:39:25;;;;;;;0.40;0.20;;;9.60;99.90;;;;;;5023590;28;20383;-76
2021/05/23 05:41:51;;;;;;;0.40;0.20;;;9.90;99.90;;;;;;5031344;28;20397;-76
2021/05/23 05:44:16;;;;;;;0.40;0.20;;;10.00;99.90;;;;;;5031143;28;20399;-77
2021/05/23 05:46:42;;;;;;;0.40;0.20;;;10.00;99.90;;;;;;5006979;28;20488;-78
2021/05/23 05:49:08;;;;;;;0.40;0.20;;;10.10;99.90;;;;;;5007158;28;20396;-77
2021/05/23 05:51:36;;;;;;;0.40;0.20;;;10.10;99.90;;;;;;5016921;28;20406;-76
2021/05/23 05:54:02;;;;;;;0.40;0.20;;;9.70;99.90;;;;;;5014759;28;20536;-77
2021/05/23 05:56:28;;;;;;;0.40;0.20;;;10.20;99.90;;;;;;5020308;28;20861;-76
2021/05/23 05:58:56;;;;;;;0.40;0.20;;;10.40;99.90;;;;;;5019191;28;20412;-77
2021/05/23 06:01:22;;;;;;;0.40;0.22;;;10.20;99.90;;;;;;5023528;28;20398;-75
2021/05/23 06:03:47;;;;;;;0.40;0.20;;;10.30;99.90;;;;;;5019527;28;20842;-76
2021/05/23 06:06:15;;;;;;;0.40;0.20;;;10.50;99.90;;;;;;5005954;28;20769;-77
2021/05/23 06:08:41;;;;;;;0.40;0.20;;;10.50;99.90;;;;;;5015836;28;20389;-76
2021/05/23 06:11:07;;;;;;;1.60;0.60;;;10.40;99.90;;;;;;5019070;28;20446;-77
2021/05/23 06:13:32;;;;;;;0.40;0.20;;;10.40;99.90;;;;;;5022169;28;20434;-77
2021/05/23 06:15:58;;;;;;;0.40;0.20;;;10.40;99.90;;;;;;5019234;28;20397;-77
2021/05/23 06:18:30;;;;;;;0.40;0.20;;;10.50;99.90;;;;;;5024461;28;20383;-76
2021/05/23 06:20:56;;;;;;;0.40;0.20;;;10.50;99.90;;;;;;5018771;28;20396;-76
2021/05/23 06:23:21;;;;;;;0.40;0.20;;;10.50;99.90;;;;;;5008265;28;20388;-78
2021/05/23 06:25:48;;;;;;;0.40;0.20;;;10.70;99.90;;;;;;4991222;28;20397;-78
2021/05/23 06:28:14;;;;;;;0.40;0.20;;;11.50;99.90;;;;;;5014941;28;20475;-76
2021/05/23 06:30:40;;;;;;;0.40;0.20;;;11.50;99.90;;;;;;5019719;28;20820;-74
2021/05/23 06:33:05;;;;;;;0.40;0.20;;;10.90;99.90;;;;;;5017252;28;20460;-75
2021/05/23 06:35:31;;;;;;;0.40;0.20;;;11.00;99.90;;;;;;5020227;28;20429;-76
2021/05/23 06:37:57;;;;;;;0.40;0.20;;;11.00;99.90;;;;;;5016966;28;20396;-76
2021/05/23 06:40:22;;;;;;;0.40;0.20;;;11.00;99.90;;;;;;5021361;28;20399;-76
2021/05/23 06:42:48;;;;;;;0.40;0.20;;;11.10;99.90;;;;;;5001968;28;20400;-75
2021/05/23 06:45:14;;;;;;;0.40;0.20;;;11.20;99.90;;;;;;5004544;28;20428;-75
2021/05/23 06:47:39;;;;;;;0.40;0.20;;;11.20;99.90;;;;;;5007140;28;20435;-77
2021/05/23 06:50:06;;;;;;;0.40;0.20;;;11.70;99.90;;;;;;5010995;28;20750;-77
2021/05/23 06:52:32;;;;;;;0.40;0.20;;;11.30;99.90;;;;;;5023501;28;20391;-76
2021/05/23 06:54:58;;;;;;;0.40;0.20;;;11.30;99.90;;;;;;5009199;28;20395;-75
2021/05/23 06:57:24;;;;;;;0.40;0.20;;;11.50;99.90;;;;;;5010795;28;20392;-76
2021/05/23 06:59:52;;;;;;;0.40;0.20;;;11.60;99.90;;;;;;5009278;28;20377;-79
2021/05/23 07:02:18;;;;;;;0.40;0.40;;;11.70;99.90;;;;;;5019034;28;20394;-78
2021/05/23 07:05:10;;;;;;;0.40;0.20;;;11.80;99.90;;;;;;5003357;28;20952;-77
2021/05/23 07:07:36;;;;;;;0.40;0.20;;;11.80;99.90;;;;;;5016140;28;20434;-76
2021/05/23 07:10:02;;;;;;;0.40;0.20;;;11.60;99.90;;;;;;5024240;28;20428;-76
2021/05/23 07:12:27;;;;;;;0.40;0.20;;;11.60;99.90;;;;;;5015089;28;20484;-76
2021/05/23 07:14:53;;;;;;;0.40;0.30;;;11.60;99.90;;;;;;5021911;28;20465;-77
2021/05/23 07:17:19;;;;;;;0.40;0.20;;;11.80;99.90;;;;;;5026376;28;20403;-78
2021/05/23 07:19:44;;;;;;;0.40;0.20;;;11.60;99.90;;;;;;5022700;28;20441;-78
2021/05/23 07:22:10;;;;;;;0.40;0.20;;;11.60;99.90;;;;;;5026249;28;20891;-77
2021/05/23 07:24:36;;;;;;;0.40;0.20;;;11.50;99.90;;;;;;5029087;28;20383;-76
2021/05/23 07:27:01;;;;;;;0.40;0.20;;;11.40;99.90;;;;;;5029529;28;20476;-78
2021/05/23 07:29:27;;;;;;;0.40;0.20;;;11.20;99.90;;;;;;5017397;28;20804;-78
2021/05/23 07:31:52;;;;;;;0.40;0.20;;;11.20;99.90;;;;;;5009287;28;20396;-76
2021/05/23 07:34:18;;;;;;;0.40;0.30;;;11.30;99.90;;;;;;5008058;28;20380;-75
2021/05/23 07:36:44;;;;;;;0.40;0.20;;;11.30;99.90;;;;;;5027105;28;20456;-77
2021/05/23 07:39:10;;;;;;;0.40;0.20;;;11.40;99.90;;;;;;5017525;28;20396;-78
2021/05/23 07:41:36;;;;;;;0.40;0.20;;;11.60;99.90;;;;;;5010610;28;20773;-77
2021/05/23 07:44:02;;;;;;;0.40;0.20;;;11.70;99.90;;;;;;5011597;28;20377;-78
2021/05/23 07:46:27;;;;;;;0.40;0.30;;;11.80;99.90;;;;;;5019151;28;20800;-76
2021/05/23 07:48:53;;;;;;;0.40;0.20;;;11.80;99.90;;;;;;5024908;28;20387;-77
2021/05/23 07:51:18;;;;;;;0.40;0.20;;;12.20;99.90;;;;;;5033922;28;20411;-75
2021/05/23 07:53:44;;;;;;;0.40;0.20;;;11.90;99.90;;;;;;5033529;28;20521;-77
2021/05/23 07:56:11;;;;;;;0.40;0.20;;;12.00;99.90;;;;;;5016178;28;20391;-75
2021/05/23 07:58:38;;;;;;;0.40;0.20;;;12.00;99.90;;;;;;5033091;28;20399;-78
2021/05/23 08:01:03;;;;;;;0.40;0.20;;;12.10;99.90;;;;;;5033921;28;20402;-76
2021/05/23 08:03:29;;;;;;;0.40;0.20;;;12.00;99.90;;;;;;5033561;28;20391;-77
2021/05/23 08:05:55;;;;;;;0.40;0.20;;;11.90;99.90;;;;;;5033512;28;20866;-76
2021/05/23 08:08:20;;;;;;;0.40;0.20;;;12.20;99.90;;;;;;5033712;28;20423;-77
2021/05/23 08:10:46;;;;;;;0.40;0.20;;;12.20;99.10;;;;;;5032994;28;20391;-76
2021/05/23 08:13:12;;;;;;;0.40;0.20;;;12.30;99.90;;;;;;5023150;28;20387;-75
2021/05/23 08:15:38;;;;;;;1.00;0.50;;;12.50;99.10;;;;;;5013178;28;20381;-75
2021/05/23 08:18:04;;;;;;;0.40;0.20;;;12.60;98.20;;;;;;5013901;28;20735;-76
2021/05/23 08:20:29;;;;;;;0.40;0.20;;;12.80;97.40;;;;;;5012956;28;20469;-76
2021/05/23 08:22:55;;;;;;;0.40;0.20;;;13.10;96.70;;;;;;5015896;28;20409;-76
2021/05/23 08:25:21;;;;;;;0.40;0.30;;;12.90;95.30;;;;;;5033130;28;20415;-77
2021/05/23 08:27:47;;;;;;;0.40;0.30;;;13.00;95.70;;;;;;4998734;28;20488;-76
2021/05/23 08:30:13;;;;;;;0.40;0.20;;;12.90;93.90;;;;;;5013490;28;20412;-75
2021/05/23 08:32:39;;;;;;;0.40;0.30;;;13.10;93.60;;;;;;5012484;28;20438;-76
2021/05/23 08:35:07;;;;;;;0.40;0.20;;;13.00;93.00;;;;;;5013398;28;20393;-75
2021/05/23 08:37:32;;;;;;;0.40;0.20;;;13.10;93.20;;;;;;5012986;28;20742;-76
2021/05/23 08:39:58;;;;;;;0.40;0.20;;;13.00;94.20;;;;;;5013257;28;20393;-75
2021/05/23 08:42:24;;;;;;;0.40;0.30;;;12.90;93.80;;;;;;5013096;28;20381;-76
2021/05/23 08:44:52;;;;;;;0.40;0.20;;;12.80;93.30;;;;;;5011321;28;20472;-75
2021/05/23 08:47:18;;;;;;;0.40;0.20;;;13.00;93.20;;;;;;5012847;28;21001;-76
2021/05/23 08:49:44;;;;;;;0.40;0.20;;;13.00;92.60;;;;;;5010624;28;20421;-76
2021/05/23 08:52:10;;;;;;;0.40;0.40;;;13.00;92.80;;;;;;5013028;28;20397;-76
2021/05/23 08:54:41;;;;;;;0.40;0.30;;;13.20;92.30;;;;;;4999751;28;20405;-76
2021/05/23 08:57:08;;;;;;;0.70;0.70;;;13.10;91.40;;;;;;5015163;28;20965;-76
2021/05/23 08:59:33;;;;;;;0.40;0.40;;;13.40;91.30;;;;;;5032443;28;20388;-75
2021/05/23 09:02:09;;;;;;;0.40;0.20;;;13.60;91.60;;;;;;5032790;28;21021;-75
2021/05/23 09:04:34;;;;;;;0.40;0.20;;;13.70;90.40;;;;;;5032204;28;20895;-76
2021/05/23 09:07:05;;;;;;;0.40;0.30;;;13.80;90.20;;;;;;5032284;28;20411;-76
2021/05/23 09:09:41;;;;;;;0.40;0.20;;;13.70;90.30;;;;;;5014296;28;20486;-76
2021/05/23 09:12:09;;;;;;;0.40;0.20;;;13.70;89.00;;;;;;5012972;28;20404;-77
2021/05/23 09:14:37;;;;;;;0.40;0.30;;;13.70;90.30;;;;;;5012467;28;20384;-76
2021/05/23 09:17:05;;;;;;;0.40;0.40;;;13.60;90.40;;;;;;5011293;28;20397;-76
2021/05/23 09:19:42;;;;;;;0.40;0.30;;;13.60;90.10;;;;;;5012019;28;20389;-75
2021/05/23 09:22:14;;;;;;;0.40;0.30;;;13.30;90.10;;;;;;5012767;28;20473;-77
2021/05/23 09:25:07;;;;;;;0.40;0.30;;;13.20;90.30;;;;;;5031665;28;20861;-76
2021/05/23 09:27:33;;;;;;;0.40;0.30;;;13.40;90.60;;;;;;5027029;28;20423;-76
2021/05/23 09:30:11;;;;;;;0.40;0.30;;;13.70;90.40;;;;;;5031991;28;20387;-76
2021/05/23 09:32:38;;;;;;;0.40;0.20;;;13.80;90.40;;;;;;5029184;28;20491;-77
2021/05/23 09:35:06;;;;;;;0.40;0.20;;;13.90;90.00;;;;;;5031778;28;20876;-76
2021/05/23 09:37:32;;;;;;;0.40;0.20;;;14.00;89.20;;;;;;5031025;28;20407;-77
2021/05/23 09:39:59;;;;;;;0.40;0.20;;;13.80;89.90;;;;;;5032015;28;20439;-76
2021/05/23 09:42:25;;;;;;;0.40;0.20;;;13.80;90.50;;;;;;5031494;28;20489;-75
2021/05/23 09:44:57;;;;;;;0.40;0.20;;;13.10;92.00;;;;;;5030813;28;20518;-77
2021/05/23 09:47:23;;;;;;;0.40;0.20;;;13.20;93.80;;;;;;5004973;28;20787;-74
2021/05/23 09:49:54;;;;;;;0.40;0.20;;;13.20;94.40;;;;;;5024152;28;20407;-78
2021/05/23 09:52:38;;;;;;;0.40;0.20;;;13.20;92.30;;;;;;5003460;28;20401;-78
2021/05/23 09:55:04;;;;;;;0.40;0.20;;;12.90;88.70;;;;;;5006988;28;20393;-78
2021/05/23 09:57:30;;;;;;;0.40;0.20;;;13.00;89.20;;;;;;5022147;28;20395;-76
2021/05/23 10:00:10;;;;;;;0.40;0.20;;;13.00;88.90;;;;;;5005757;28;21181;-75
2021/05/23 10:02:58;;;;;;;0.40;0.20;;;13.10;90.10;;;;;;5020108;28;20418;-78
2021/05/23 10:05:24;;;;;;;0.40;0.20;;;13.20;89.00;;;;;;5026389;28;20445;-75
2021/05/23 10:07:50;;;;;;;0.40;0.20;;;13.40;89.70;;;;;;5016671;28;20415;-76
2021/05/23 10:10:16;;;;;;;0.40;0.20;;;13.60;90.90;;;;;;5020795;28;20472;-78
2021/05/23 10:12:43;;;;;;;0.40;0.20;;;13.90;90.30;;;;;;5022230;28;20446;-76
2021/05/23 10:15:10;;;;;;;0.40;0.20;;;13.90;89.80;;;;;;5020447;28;20379;-76
2021/05/23 10:17:37;;;;;;;0.40;0.30;;;13.80;90.10;;;;;;5020128;28;20728;-77
2021/05/23 10:20:10;;;;;;;0.40;0.20;;;13.70;90.50;;;;;;5018144;28;20547;-75
2021/05/23 10:22:40;;;;;;;0.40;0.20;;;13.60;91.00;;;;;;5021861;28;20480;-77
2021/05/23 10:25:11;;;;;;;0.40;0.20;;;13.80;90.90;;;;;;5029158;28;20485;-78
2021/05/23 10:27:54;;;;;;;0.40;0.40;;;13.80;88.50;;;;;;5029196;28;20423;-79
2021/05/23 10:30:21;;;;;;;0.40;0.20;;;13.90;88.30;;;;;;5030397;28;20430;-77
2021/05/23 10:32:52;;;;;;;0.40;0.20;;;14.30;86.90;;;;;;5029625;28;20392;-75
2021/05/23 10:35:32;;;;;;;0.40;0.20;;;14.30;85.10;;;;;;5012997;28;20758;-76
2021/05/23 10:38:10;;;;;;;0.40;0.20;;;14.40;84.30;;;;;;5029907;28;20670;-74
2021/05/23 10:41:17;;;;;;;0.40;0.20;;;14.80;82.50;;;;;;5012844;28;20399;-80
2021/05/23 10:43:47;;;;;;;0.40;0.30;;;14.90;83.60;;;;;;5012179;28;20418;-75
2021/05/23 10:46:30;;;;;;;0.40;0.20;;;15.20;81.00;;;;;;5030671;28;20379;-77
2021/05/23 10:49:12;;;;;;;0.40;0.20;;;15.40;81.60;;;;;;5012197;28;20889;-76
2021/05/23 10:51:54;;;;;;;0.40;0.30;;;15.50;78.90;;;;;;5025454;28;20401;-77
2021/05/23 10:55:13;;;;;;;0.40;0.20;;;15.60;78.50;;;;;;5009523;28;20554;-76
2021/05/23 10:57:49;;;;;;;0.40;0.20;;;15.50;77.60;;;;;;5002268;28;20437;-76
2021/05/23 11:00:36;;;;;;;0.40;0.30;;;15.50;78.00;;;;;;5005927;28;20466;-75
2021/05/23 11:03:46;;;;;;;0.40;0.20;;;15.80;78.20;;;;;;5011085;28;20755;-76
2021/05/23 11:06:21;;;;;;;0.40;0.30;;;16.20;75.90;;;;;;4989716;28;20548;-78
2021/05/23 11:08:48;;;;;;;0.40;0.30;;;16.60;74.90;;;;;;4991091;28;20386;-75
2021/05/23 11:11:20;;;;;;;0.40;0.20;;;16.50;74.60;;;;;;4991572;28;20431;-74
2021/05/23 11:13:46;;;;;;;0.40;0.20;;;16.00;73.40;;;;;;4990999;28;20382;-75
2021/05/23 11:16:17;;;;;;;0.40;0.20;;;15.50;69.80;;;;;;4991321;28;20379;-77
2021/05/23 11:18:44;;;;;;;0.40;0.20;;;15.50;69.30;;;;;;4989756;28;20403;-77
2021/05/23 11:21:15;;;;;;;0.40;0.20;;;15.80;70.40;;;;;;4995944;28;20399;-76
2021/05/23 11:23:53;;;;;;;0.40;0.20;;;16.10;69.10;;;;;;5009198;28;20581;-75
2021/05/23 11:26:20;;;;;;;0.40;0.20;;;16.00;67.70;;;;;;5009702;28;20397;-75
2021/05/23 11:28:52;;;;;;;0.40;0.20;;;15.70;69.60;;;;;;5010353;28;20389;-77
2021/05/23 11:31:27;;;;;;;0.40;0.28;;;15.50;67.60;;;;;;4996830;28;20766;-74
2021/05/23 11:33:55;;;;;;;0.40;0.20;;;15.30;68.90;;;;;;4990749;28;20386;-75
2021/05/23 11:36:22;;;;;;;0.40;0.20;;;15.20;68.90;;;;;;4991392;28;20389;-75
2021/05/23 11:38:49;;;;;;;0.40;0.20;;;15.30;69.50;;;;;;4990720;28;20409;-75
2021/05/23 11:41:26;;;;;;;0.40;0.20;;;15.50;70.30;;;;;;4991374;28;20389;-75
2021/05/23 11:43:55;;;;;;;0.40;0.20;;;16.10;68.10;;;;;;5004816;28;20401;-77
2021/05/23 11:46:22;;;;;;;0.40;0.20;;;17.10;65.90;;;;;;5005159;28;20401;-75
2021/05/23 11:48:50;;;;;;;0.40;0.20;;;17.90;63.00;;;;;;4997703;28;20480;-74
2021/05/23 11:51:29;;;;;;;0.40;0.20;;;16.60;62.60;;;;;;5018652;28;20443;-76
2021/05/23 11:53:57;;;;;;;0.40;0.20;;;16.10;65.40;;;;;;4994681;28;20395;-72
2021/05/23 11:56:28;;;;;;;0.40;0.20;;;15.70;68.20;;;;;;5013714;28;20400;-73
2021/05/23 11:58:59;;;;;;;0.40;0.30;;;15.60;68.10;;;;;;5023102;28;20403;-74
2021/05/23 12:01:27;;;;;;;0.40;0.20;;;16.30;68.60;;;;;;5022789;28;20399;-73
2021/05/23 12:03:57;;;;;;;0.40;0.40;;;16.30;68.30;;;;;;5030519;28;20433;-72
2021/05/23 12:06:22;;;;;;;0.40;0.20;;;16.20;68.80;;;;;;5006360;28;20893;-73
2021/05/23 12:08:49;;;;;;;0.40;0.20;;;15.90;68.20;;;;;;4999050;28;20392;-72
2021/05/23 12:11:15;;;;;;;0.40;0.20;;;15.90;69.10;;;;;;5013321;28;20385;-74
2021/05/23 12:13:47;;;;;;;0.40;0.20;;;15.90;68.20;;;;;;5002273;28;20443;-76
2021/05/23 12:16:14;;;;;;;0.40;0.30;;;16.60;67.60;;;;;;5022565;28;20848;-72
2021/05/23 12:18:43;;;;;;;0.40;0.30;;;16.70;65.50;;;;;;5012368;28;20402;-75
2021/05/23 12:21:12;;;;;;;0.40;0.20;;;16.10;65.90;;;;;;5032702;28;20403;-74
2021/05/23 12:23:39;;;;;;;0.40;0.30;;;16.10;66.20;;;;;;5013768;28;20402;-74
2021/05/23 12:26:09;;;;;;;0.40;0.20;;;16.30;65.40;;;;;;5032874;28;20445;-74
2021/05/23 12:28:41;;;;;;;0.40;0.20;;;16.10;64.00;;;;;;5013691;28;20478;-74
2021/05/23 12:31:07;;;;;;;0.40;0.20;;;16.70;63.50;;;;;;5012491;28;20426;-73
2021/05/23 12:33:33;;;;;;;0.40;0.30;;;17.00;63.20;;;;;;5030797;28;20400;-75
2021/05/23 12:36:11;;;;;;;0.40;0.25;;;17.10;63.20;;;;;;5013499;28;20816;-73
2021/05/23 12:38:38;;;;;;;0.40;0.20;;;17.10;63.60;;;;;;5033353;28;20433;-75
2021/05/23 12:41:04;;;;;;;0.40;0.30;;;17.10;66.20;;;;;;5031647;28;20745;-74
2021/05/23 12:43:33;;;;;;;0.40;0.30;;;17.30;63.20;;;;;;5032487;28;20873;-75
2021/05/23 12:46:09;;;;;;;0.40;0.20;;;18.10;62.30;;;;;;5032573;28;20391;-74
2021/05/23 12:48:46;;;;;;;0.40;0.20;;;17.90;60.00;;;;;;5033095;28;20397;-76
2021/05/23 12:51:18;;;;;;;0.40;0.30;;;18.30;58.50;;;;;;5032259;28;20456;-74
2021/05/23 12:53:48;;;;;;;0.40;0.20;;;18.80;56.50;;;;;;5031589;28;20433;-74
2021/05/23 12:56:21;;;;;;;0.40;0.30;;;18.20;55.10;;;;;;5031476;28;20480;-75
2021/05/23 12:58:50;;;;;;;0.40;0.20;;;18.60;58.60;;;;;;5014326;28;20399;-76
2021/05/23 13:01:25;;;;;;;0.40;0.20;;;18.50;59.30;;;;;;5014986;28;20798;-74